sensor_id;sensor_type;location;lat;lon;timestamp;temperature;humidity
12452;DHT22;6291;48.924;12.204;2022-10-16T00:02:46;14.40;99.90
12452;DHT22;6291;48.924;12.204;2022-10-16T00:07:50;14.50;99.90
12452;DHT22;6291;48.924;12.204;2022-10-16T00:12:53;14.50;99.90
12452;DHT22;6291;48.924;12.204;2022-10-16T00:17:58;14.30;99.90
12452;DHT22;6291;48.924;12.204;2022-10-16T00:23:03;14.10;99.90
12452;DHT22;6291;48.924;12.204;2022-10-16T00:28:07;14.10;99.90
12452;DHT22;6291;48.924;12.204;2022-10-16T00:33:11;14.40;99.90
12452;DHT22;6291;48.924;12.204;2022-10-16T00:38:14;14.50;99.90
12452;DHT22;6291;48.924;12.204;2022-10-16T00:43:35;14.40;99.90
12452;DHT22;6291;48.924;12.204;2022-10-16T00:48:40;14.30;99.90
12452;DHT22;6291;48.924;12.204;2022-10-16T00:53:44;14.20;99.90
12452;DHT22;6291;48.924;12.204;2022-10-16T00:58:48;14.10;99.90
12452;DHT22;6291;48.924;12.204;2022-10-16T01:03:52;14.20;99.90
12452;DHT22;6291;48.924;12.204;2022-10-16T01:09:04;14.30;99.90
12452;DHT22;6291;48.924;12.204;2022-10-16T01:14:17;14.30;99.90
12452;DHT22;6291;48.924;12.204;2022-10-16T01:19:38;14.30;99.90
12452;DHT22;6291;48.924;12.204;2022-10-16T01:24:46;14.30;99.90
12452;DHT22;6291;48.924;12.204;2022-10-16T01:29:54;14.30;99.90
12452;DHT22;6291;48.924;12.204;2022-10-16T01:35:02;14.20;99.90
12452;DHT22;6291;48.924;12.204;2022-10-16T01:40:11;14.10;99.90
12452;DHT22;6291;48.924;12.204;2022-10-16T01:45:18;14.00;99.90
12452;DHT22;6291;48.924;12.204;2022-10-16T01:50:21;13.90;99.90
12452;DHT22;6291;48.924;12.204;2022-10-16T01:55:28;13.90;99.90
12452;DHT22;6291;48.924;12.204;2022-10-16T02:00:34;13.90;99.90
12452;DHT22;6291;48.924;12.204;2022-10-16T02:05:42;13.70;99.90
12452;DHT22;6291;48.924;12.204;2022-10-16T02:10:48;13.60;99.90
12452;DHT22;6291;48.924;12.204;2022-10-16T02:15:53;13.60;99.90
12452;DHT22;6291;48.924;12.204;2022-10-16T02:20:59;13.60;99.90
12452;DHT22;6291;48.924;12.204;2022-10-16T02:26:06;13.60;99.90
12452;DHT22;6291;48.924;12.204;2022-10-16T02:31:13;13.70;99.90
12452;DHT22;6291;48.924;12.204;2022-10-16T02:36:19;13.70;99.90
12452;DHT22;6291;48.924;12.204;2022-10-16T02:41:23;13.50;99.90
12452;DHT22;6291;48.924;12.204;2022-10-16T02:46:28;13.60;99.90
12452;DHT22;6291;48.924;12.204;2022-10-16T02:51:31;13.50;99.90
12452;DHT22;6291;48.924;12.204;2022-10-16T02:56:34;13.40;99.90
12452;DHT22;6291;48.924;12.204;2022-10-16T03:01:39;13.30;99.90
12452;DHT22;6291;48.924;12.204;2022-10-16T03:06:42;13.20;99.90
12452;DHT22;6291;48.924;12.204;2022-10-16T03:11:46;13.20;99.90
12452;DHT22;6291;48.924;12.204;2022-10-16T03:16:50;13.30;99.90
12452;DHT22;6291;48.924;12.204;2022-10-16T03:21:54;13.40;99.90
12452;DHT22;6291;48.924;12.204;2022-10-16T03:26:58;13.40;99.90
12452;DHT22;6291;48.924;12.204;2022-10-16T03:32:03;13.50;99.90
12452;DHT22;6291;48.924;12.204;2022-10-16T03:37:06;13.40;99.90
12452;DHT22;6291;48.924;12.204;2022-10-16T03:42:10;13.40;99.90
12452;DHT22;6291;48.924;12.204;2022-10-16T03:47:14;13.40;99.90
12452;DHT22;6291;48.924;12.204;2022-10-16T03:52:22;13.50;99.90
12452;DHT22;6291;48.924;12.204;2022-10-16T03:57:25;13.40;99.90
12452;DHT22;6291;48.924;12.204;2022-10-16T04:02:31;13.20;99.90
12452;DHT22;6291;48.924;12.204;2022-10-16T04:07:35;13.20;99.90
12452;DHT22;6291;48.924;12.204;2022-10-16T04:12:38;13.30;99.90
12452;DHT22;6291;48.924;12.204;2022-10-16T04:17:43;13.30;99.90
12452;DHT22;6291;48.924;12.204;2022-10-16T04:22:46;13.30;99.90
12452;DHT22;6291;48.924;12.204;2022-10-16T04:27:49;13.50;99.90
12452;DHT22;6291;48.924;12.204;2022-10-16T04:32:54;13.40;99.90
12452;DHT22;6291;48.924;12.204;2022-10-16T04:37:57;13.30;99.90
12452;DHT22;6291;48.924;12.204;2022-10-16T04:43:01;13.30;99.90
12452;DHT22;6291;48.924;12.204;2022-10-16T04:48:05;13.30;99.90
12452;DHT22;6291;48.924;12.204;2022-10-16T04:53:09;13.10;99.90
12452;DHT22;6291;48.924;12.204;2022-10-16T04:58:12;13.20;99.90
12452;DHT22;6291;48.924;12.204;2022-10-16T05:03:17;13.20;99.90
12452;DHT22;6291;48.924;12.204;2022-10-16T05:08:21;13.20;99.90
12452;DHT22;6291;48.924;12.204;2022-10-16T05:13:24;13.20;99.90
12452;DHT22;6291;48.924;12.204;2022-10-16T05:18:29;13.10;99.90
12452;DHT22;6291;48.924;12.204;2022-10-16T05:23:32;13.00;99.90
12452;DHT22;6291;48.924;12.204;2022-10-16T05:28:36;13.10;99.90
12452;DHT22;6291;48.924;12.204;2022-10-16T05:33:40;13.00;99.90
12452;DHT22;6291;48.924;12.204;2022-10-16T05:38:46;13.00;99.90
12452;DHT22;6291;48.924;12.204;2022-10-16T05:43:49;13.00;99.90
12452;DHT22;6291;48.924;12.204;2022-10-16T05:48:54;13.10;99.90
12452;DHT22;6291;48.924;12.204;2022-10-16T05:53:57;13.30;99.90
12452;DHT22;6291;48.924;12.204;2022-10-16T05:59:00;13.40;99.90
12452;DHT22;6291;48.924;12.204;2022-10-16T06:04:05;13.40;99.90
12452;DHT22;6291;48.924;12.204;2022-10-16T06:09:09;13.30;99.90
12452;DHT22;6291;48.924;12.204;2022-10-16T06:14:13;13.30;99.90
12452;DHT22;6291;48.924;12.204;2022-10-16T06:19:17;13.40;99.90
12452;DHT22;6291;48.924;12.204;2022-10-16T06:24:21;13.40;99.90
12452;DHT22;6291;48.924;12.204;2022-10-16T06:29:24;13.40;99.90
12452;DHT22;6291;48.924;12.204;2022-10-16T06:34:29;13.30;99.90
12452;DHT22;6291;48.924;12.204;2022-10-16T06:39:33;13.30;99.90
12452;DHT22;6291;48.924;12.204;2022-10-16T06:44:36;13.40;99.90
12452;DHT22;6291;48.924;12.204;2022-10-16T06:49:41;11.40;99.90
12452;DHT22;6291;48.924;12.204;2022-10-16T06:54:44;13.50;99.90
12452;DHT22;6291;48.924;12.204;2022-10-16T06:59:47;13.80;99.90
12452;DHT22;6291;48.924;12.204;2022-10-16T07:04:57;13.80;99.90
12452;DHT22;6291;48.924;12.204;2022-10-16T07:10:01;13.90;99.90
12452;DHT22;6291;48.924;12.204;2022-10-16T07:15:05;14.10;99.90
12452;DHT22;6291;48.924;12.204;2022-10-16T07:20:10;14.20;99.90
12452;DHT22;6291;48.924;12.204;2022-10-16T07:25:13;16.10;99.90
12452;DHT22;6291;48.924;12.204;2022-10-16T07:30:17;14.80;99.90
12452;DHT22;6291;48.924;12.204;2022-10-16T07:35:21;15.50;99.90
12452;DHT22;6291;48.924;12.204;2022-10-16T07:40:24;15.60;99.90
12452;DHT22;6291;48.924;12.204;2022-10-16T07:45:29;15.70;99.90
12452;DHT22;6291;48.924;12.204;2022-10-16T07:50:33;16.10;99.90
12452;DHT22;6291;48.924;12.204;2022-10-16T07:55:37;17.00;99.90
12452;DHT22;6291;48.924;12.204;2022-10-16T08:00:40;16.90;99.90
12452;DHT22;6291;48.924;12.204;2022-10-16T08:05:45;17.70;99.90
12452;DHT22;6291;48.924;12.204;2022-10-16T08:10:49;17.60;99.90
12452;DHT22;6291;48.924;12.204;2022-10-16T08:15:54;18.00;99.90
12452;DHT22;6291;48.924;12.204;2022-10-16T08:20:59;19.00;99.90
12452;DHT22;6291;48.924;12.204;2022-10-16T08:26:04;24.00;99.90
12452;DHT22;6291;48.924;12.204;2022-10-16T08:31:09;19.20;99.90
12452;DHT22;6291;48.924;12.204;2022-10-16T08:36:15;19.30;99.90
12452;DHT22;6291;48.924;12.204;2022-10-16T08:41:42;19.50;99.90
12452;DHT22;6291;48.924;12.204;2022-10-16T08:47:01;19.30;99.90
12452;DHT22;6291;48.924;12.204;2022-10-16T08:52:11;19.40;99.90
12452;DHT22;6291;48.924;12.204;2022-10-16T08:57:19;20.00;99.90
12452;DHT22;6291;48.924;12.204;2022-10-16T09:02:31;19.70;99.90
12452;DHT22;6291;48.924;12.204;2022-10-16T09:07:41;20.60;99.90
12452;DHT22;6291;48.924;12.204;2022-10-16T09:12:53;21.10;99.90
12452;DHT22;6291;48.924;12.204;2022-10-16T09:18:03;21.50;99.90
12452;DHT22;6291;48.924;12.204;2022-10-16T09:23:16;21.30;99.90
12452;DHT22;6291;48.924;12.204;2022-10-16T09:28:20;22.30;99.90
12452;DHT22;6291;48.924;12.204;2022-10-16T09:33:28;22.90;99.90
12452;DHT22;6291;48.924;12.204;2022-10-16T09:38:35;23.30;99.90
12452;DHT22;6291;48.924;12.204;2022-10-16T09:43:41;23.40;98.40
12452;DHT22;6291;48.924;12.204;2022-10-16T09:48:48;23.10;98.30
12452;DHT22;6291;48.924;12.204;2022-10-16T09:53:57;22.70;98.70
12452;DHT22;6291;48.924;12.204;2022-10-16T09:59:08;23.20;97.10
12452;DHT22;6291;48.924;12.204;2022-10-16T10:04:13;23.10;98.80
12452;DHT22;6291;48.924;12.204;2022-10-16T10:09:20;23.90;96.60
12452;DHT22;6291;48.924;12.204;2022-10-16T10:14:30;24.10;94.40
12452;DHT22;6291;48.924;12.204;2022-10-16T10:19:39;24.20;94.70
12452;DHT22;6291;48.924;12.204;2022-10-16T10:24:44;23.90;94.20
12452;DHT22;6291;48.924;12.204;2022-10-16T10:29:53;23.90;95.30
12452;DHT22;6291;48.924;12.204;2022-10-16T10:35:12;25.10;92.80
12452;DHT22;6291;48.924;12.204;2022-10-16T10:40:28;24.50;92.20
12452;DHT22;6291;48.924;12.204;2022-10-16T10:45:40;25.90;89.70
12452;DHT22;6291;48.924;12.204;2022-10-16T10:50:48;25.80;85.60
12452;DHT22;6291;48.924;12.204;2022-10-16T10:55:59;24.70;87.20
12452;DHT22;6291;48.924;12.204;2022-10-16T11:01:08;25.00;88.50
12452;DHT22;6291;48.924;12.204;2022-10-16T11:06:17;25.30;86.10
12452;DHT22;6291;48.924;12.204;2022-10-16T11:11:25;25.00;86.00
12452;DHT22;6291;48.924;12.204;2022-10-16T11:16:37;23.70;90.80
12452;DHT22;6291;48.924;12.204;2022-10-16T11:21:46;25.70;82.30
12452;DHT22;6291;48.924;12.204;2022-10-16T11:26:54;27.30;78.20
12452;DHT22;6291;48.924;12.204;2022-10-16T11:32:01;26.10;80.10
12452;DHT22;6291;48.924;12.204;2022-10-16T11:37:12;26.10;80.70
12452;DHT22;6291;48.924;12.204;2022-10-16T11:42:21;26.60;80.00
12452;DHT22;6291;48.924;12.204;2022-10-16T11:47:31;27.60;75.40
12452;DHT22;6291;48.924;12.204;2022-10-16T11:53:02;27.90;73.20
12452;DHT22;6291;48.924;12.204;2022-10-16T11:58:12;28.50;68.60
12452;DHT22;6291;48.924;12.204;2022-10-16T12:03:21;27.10;72.70
12452;DHT22;6291;48.924;12.204;2022-10-16T12:08:29;27.50;72.10
12452;DHT22;6291;48.924;12.204;2022-10-16T12:13:36;28.90;66.70
12452;DHT22;6291;48.924;12.204;2022-10-16T12:18:40;27.00;72.90
12452;DHT22;6291;48.924;12.204;2022-10-16T12:23:48;26.10;74.80
12452;DHT22;6291;48.924;12.204;2022-10-16T12:28:54;23.50;81.70
12452;DHT22;6291;48.924;12.204;2022-10-16T12:34:00;23.10;86.10
12452;DHT22;6291;48.924;12.204;2022-10-16T12:39:04;22.90;87.70
12452;DHT22;6291;48.924;12.204;2022-10-16T12:44:23;23.80;84.00
12452;DHT22;6291;48.924;12.204;2022-10-16T12:49:36;24.40;82.30
12452;DHT22;6291;48.924;12.204;2022-10-16T12:54:42;24.60;80.80
12452;DHT22;6291;48.924;12.204;2022-10-16T12:59:52;24.90;81.20
12452;DHT22;6291;48.924;12.204;2022-10-16T13:05:09;24.10;82.40
12452;DHT22;6291;48.924;12.204;2022-10-16T13:10:25;23.90;81.60
12452;DHT22;6291;48.924;12.204;2022-10-16T13:15:48;24.20;80.40
12452;DHT22;6291;48.924;12.204;2022-10-16T13:21:07;23.60;82.20
12452;DHT22;6291;48.924;12.204;2022-10-16T13:26:21;23.10;84.60
12452;DHT22;6291;48.924;12.204;2022-10-16T13:31:28;23.80;82.00
12452;DHT22;6291;48.924;12.204;2022-10-16T13:36:35;24.10;81.70
12452;DHT22;6291;48.924;12.204;2022-10-16T13:41:45;24.10;86.90
12452;DHT22;6291;48.924;12.204;2022-10-16T13:46:59;25.60;84.60
12452;DHT22;6291;48.924;12.204;2022-10-16T13:52:03;28.00;80.10
12452;DHT22;6291;48.924;12.204;2022-10-16T13:57:06;29.10;76.90
12452;DHT22;6291;48.924;12.204;2022-10-16T14:02:31;32.90;75.80
12452;DHT22;6291;48.924;12.204;2022-10-16T14:07:37;28.70;75.50
12452;DHT22;6291;48.924;12.204;2022-10-16T14:12:41;28.30;75.70
12452;DHT22;6291;48.924;12.204;2022-10-16T14:17:49;28.50;76.00
12452;DHT22;6291;48.924;12.204;2022-10-16T14:23:01;29.20;74.80
12452;DHT22;6291;48.924;12.204;2022-10-16T14:28:15;29.20;74.70
12452;DHT22;6291;48.924;12.204;2022-10-16T14:33:24;28.90;73.80
12452;DHT22;6291;48.924;12.204;2022-10-16T14:38:28;28.50;75.00
12452;DHT22;6291;48.924;12.204;2022-10-16T14:43:34;27.60;77.80
12452;DHT22;6291;48.924;12.204;2022-10-16T14:48:42;27.10;79.60
12452;DHT22;6291;48.924;12.204;2022-10-16T14:53:46;27.00;80.50
12452;DHT22;6291;48.924;12.204;2022-10-16T14:58:51;26.80;80.20
12452;DHT22;6291;48.924;12.204;2022-10-16T15:03:55;26.10;82.50
12452;DHT22;6291;48.924;12.204;2022-10-16T15:08:59;25.20;86.20
12452;DHT22;6291;48.924;12.204;2022-10-16T15:14:02;25.30;86.40
12452;DHT22;6291;48.924;12.204;2022-10-16T15:19:08;24.60;88.80
12452;DHT22;6291;48.924;12.204;2022-10-16T15:24:12;24.10;90.30
12452;DHT22;6291;48.924;12.204;2022-10-16T15:29:21;23.60;91.60
12452;DHT22;6291;48.924;12.204;2022-10-16T15:34:26;23.50;92.60
12452;DHT22;6291;48.924;12.204;2022-10-16T15:39:29;22.90;94.00
12452;DHT22;6291;48.924;12.204;2022-10-16T15:44:33;22.50;95.40
12452;DHT22;6291;48.924;12.204;2022-10-16T15:49:38;21.80;99.90
12452;DHT22;6291;48.924;12.204;2022-10-16T15:54:42;21.10;99.90
12452;DHT22;6291;48.924;12.204;2022-10-16T15:59:51;21.00;99.90
12452;DHT22;6291;48.924;12.204;2022-10-16T16:04:55;20.50;99.90
12452;DHT22;6291;48.924;12.204;2022-10-16T16:09:59;20.40;99.90
12452;DHT22;6291;48.924;12.204;2022-10-16T16:15:03;20.10;99.90
12452;DHT22;6291;48.924;12.204;2022-10-16T16:20:10;19.70;99.90
12452;DHT22;6291;48.924;12.204;2022-10-16T16:25:13;19.50;99.90
12452;DHT22;6291;48.924;12.204;2022-10-16T16:30:17;19.30;99.90
12452;DHT22;6291;48.924;12.204;2022-10-16T16:35:29;19.10;99.90
12452;DHT22;6291;48.924;12.204;2022-10-16T16:40:32;19.00;99.90
12452;DHT22;6291;48.924;12.204;2022-10-16T16:45:36;18.80;99.90
12452;DHT22;6291;48.924;12.204;2022-10-16T16:50:40;18.70;99.90
12452;DHT22;6291;48.924;12.204;2022-10-16T16:55:44;18.60;99.90
12452;DHT22;6291;48.924;12.204;2022-10-16T17:00:47;18.30;99.90
12452;DHT22;6291;48.924;12.204;2022-10-16T17:06:00;18.10;99.90
12452;DHT22;6291;48.924;12.204;2022-10-16T17:11:04;18.10;99.90
12452;DHT22;6291;48.924;12.204;2022-10-16T17:16:08;18.00;99.90
12452;DHT22;6291;48.924;12.204;2022-10-16T17:21:13;18.00;99.90
12452;DHT22;6291;48.924;12.204;2022-10-16T17:26:16;17.90;99.90
12452;DHT22;6291;48.924;12.204;2022-10-16T17:31:21;17.90;99.90
12452;DHT22;6291;48.924;12.204;2022-10-16T17:36:26;17.80;99.90
12452;DHT22;6291;48.924;12.204;2022-10-16T17:41:32;17.70;99.90
12452;DHT22;6291;48.924;12.204;2022-10-16T17:46:36;17.70;99.90
12452;DHT22;6291;48.924;12.204;2022-10-16T17:51:43;17.60;99.90
12452;DHT22;6291;48.924;12.204;2022-10-16T17:56:46;17.50;99.90
12452;DHT22;6291;48.924;12.204;2022-10-16T18:01:50;17.70;99.90
12452;DHT22;6291;48.924;12.204;2022-10-16T18:06:55;17.60;99.90
12452;DHT22;6291;48.924;12.204;2022-10-16T18:11:58;17.60;99.90
12452;DHT22;6291;48.924;12.204;2022-10-16T18:17:02;17.50;99.90
12452;DHT22;6291;48.924;12.204;2022-10-16T18:22:06;17.50;99.90
12452;DHT22;6291;48.924;12.204;2022-10-16T18:27:10;17.50;99.90
12452;DHT22;6291;48.924;12.204;2022-10-16T18:32:13;17.40;99.90
12452;DHT22;6291;48.924;12.204;2022-10-16T18:37:18;17.30;99.90
12452;DHT22;6291;48.924;12.204;2022-10-16T18:42:21;17.20;99.90
12452;DHT22;6291;48.924;12.204;2022-10-16T18:47:27;17.10;99.90
12452;DHT22;6291;48.924;12.204;2022-10-16T18:52:32;17.30;99.90
12452;DHT22;6291;48.924;12.204;2022-10-16T18:57:36;17.20;99.90
12452;DHT22;6291;48.924;12.204;2022-10-16T19:02:39;17.00;99.90
12452;DHT22;6291;48.924;12.204;2022-10-16T19:07:46;16.90;99.90
12452;DHT22;6291;48.924;12.204;2022-10-16T19:12:49;17.80;99.90
12452;DHT22;6291;48.924;12.204;2022-10-16T19:17:52;17.20;99.90
12452;DHT22;6291;48.924;12.204;2022-10-16T19:22:57;17.20;99.90
12452;DHT22;6291;48.924;12.204;2022-10-16T19:28:00;17.20;99.90
12452;DHT22;6291;48.924;12.204;2022-10-16T19:33:08;17.20;99.90
12452;DHT22;6291;48.924;12.204;2022-10-16T19:38:13;17.10;99.90
12452;DHT22;6291;48.924;12.204;2022-10-16T19:43:16;17.00;99.90
12452;DHT22;6291;48.924;12.204;2022-10-16T19:48:20;16.90;99.90
12452;DHT22;6291;48.924;12.204;2022-10-16T19:53:25;16.80;99.90
12452;DHT22;6291;48.924;12.204;2022-10-16T19:58:29;16.70;99.90
12452;DHT22;6291;48.924;12.204;2022-10-16T20:03:32;16.50;99.90
12452;DHT22;6291;48.924;12.204;2022-10-16T20:08:39;20.90;99.90
12452;DHT22;6291;48.924;12.204;2022-10-16T20:13:43;16.40;99.90
12452;DHT22;6291;48.924;12.204;2022-10-16T20:18:48;12.40;99.90
12452;DHT22;6291;48.924;12.204;2022-10-16T20:23:54;16.60;99.90
12452;DHT22;6291;48.924;12.204;2022-10-16T20:28:57;20.00;99.90
12452;DHT22;6291;48.924;12.204;2022-10-16T20:34:03;16.60;99.90
12452;DHT22;6291;48.924;12.204;2022-10-16T20:39:09;16.40;99.90
12452;DHT22;6291;48.924;12.204;2022-10-16T20:44:14;16.40;99.90
12452;DHT22;6291;48.924;12.204;2022-10-16T20:49:17;16.40;99.90
12452;DHT22;6291;48.924;12.204;2022-10-16T20:54:43;16.20;99.90
12452;DHT22;6291;48.924;12.204;2022-10-16T20:59:47;16.10;99.90
12452;DHT22;6291;48.924;12.204;2022-10-16T21:04:55;16.00;99.90
12452;DHT22;6291;48.924;12.204;2022-10-16T21:10:00;15.90;99.90
12452;DHT22;6291;48.924;12.204;2022-10-16T21:15:04;15.80;99.90
12452;DHT22;6291;48.924;12.204;2022-10-16T21:20:16;15.80;99.90
12452;DHT22;6291;48.924;12.204;2022-10-16T21:25:21;15.70;99.90
12452;DHT22;6291;48.924;12.204;2022-10-16T21:30:24;15.60;99.90
12452;DHT22;6291;48.924;12.204;2022-10-16T21:35:29;15.50;99.90
12452;DHT22;6291;48.924;12.204;2022-10-16T21:40:34;15.30;99.90
12452;DHT22;6291;48.924;12.204;2022-10-16T21:45:37;15.30;99.90
12452;DHT22;6291;48.924;12.204;2022-10-16T21:50:46;15.10;99.90
12452;DHT22;6291;48.924;12.204;2022-10-16T21:55:50;14.90;99.90
12452;DHT22;6291;48.924;12.204;2022-10-16T22:00:53;15.00;99.90
12452;DHT22;6291;48.924;12.204;2022-10-16T22:06:00;14.90;99.90
12452;DHT22;6291;48.924;12.204;2022-10-16T22:11:10;14.80;99.90
12452;DHT22;6291;48.924;12.204;2022-10-16T22:16:14;14.90;99.90
12452;DHT22;6291;48.924;12.204;2022-10-16T22:21:17;14.80;99.90
12452;DHT22;6291;48.924;12.204;2022-10-16T22:26:22;14.80;99.90
12452;DHT22;6291;48.924;12.204;2022-10-16T22:31:26;14.80;99.90
12452;DHT22;6291;48.924;12.204;2022-10-16T22:36:29;14.70;99.90
12452;DHT22;6291;48.924;12.204;2022-10-16T22:41:34;14.60;99.90
12452;DHT22;6291;48.924;12.204;2022-10-16T22:46:37;14.40;99.90
12452;DHT22;6291;48.924;12.204;2022-10-16T22:51:41;14.30;99.90
12452;DHT22;6291;48.924;12.204;2022-10-16T22:56:45;14.10;99.90
12452;DHT22;6291;48.924;12.204;2022-10-16T23:01:49;14.00;99.90
12452;DHT22;6291;48.924;12.204;2022-10-16T23:06:52;13.80;99.90
12452;DHT22;6291;48.924;12.204;2022-10-16T23:11:57;13.70;99.90
12452;DHT22;6291;48.924;12.204;2022-10-16T23:17:00;13.60;99.90
12452;DHT22;6291;48.924;12.204;2022-10-16T23:22:03;13.40;99.90
12452;DHT22;6291;48.924;12.204;2022-10-16T23:27:08;13.30;99.90
12452;DHT22;6291;48.924;12.204;2022-10-16T23:32:11;13.30;99.90
12452;DHT22;6291;48.924;12.204;2022-10-16T23:37:15;13.10;99.90
12452;DHT22;6291;48.924;12.204;2022-10-16T23:42:19;13.10;99.90
12452;DHT22;6291;48.924;12.204;2022-10-16T23:47:23;13.00;99.90
12452;DHT22;6291;48.924;12.204;2022-10-16T23:52:26;12.80;99.90
12452;DHT22;6291;48.924;12.204;2022-10-16T23:57:31;12.80;99.90
